X  Sluiten METAR luchtvaart weer gegevens      EHAM Amsterdam Airport Schiphol
Temperatuur
17°C Temperatuur
12°C Dauwpunt
73% Vochtigheid



Wind
26 KM/U
16 MPH
7 M/S
14 KTS



200°
ZZW
Huidig weer

Wat bewolking Wat bewolking
Luchtdruk 1016.92 (hPa) - 30.03 (inHg)
Zicht 6.2 (mijl) - 10 (km)
Vliegveld
Vliegveld code EHAM

Locatie : Amsterdam Airport Schiphol
Afstand: 26 (km)

Metar:
EHAM 041455Z 20014KT 9999 FEW025 17/12 Q1017 NOSIG

Tijd: 04-10-2022 16:55 CEST